createdAt,value
2018-06-18T00:00:03.195Z,18.32
2018-06-18T00:01:10.365Z,18.30
2018-06-18T00:02:17.838Z,18.26
2018-06-18T00:03:25.724Z,18.24
2018-06-18T00:04:33.135Z,18.34
2018-06-18T00:05:41.440Z,18.38
2018-06-18T00:06:49.121Z,18.54
2018-06-18T00:07:56.142Z,18.42
2018-06-18T00:09:03.359Z,18.21
2018-06-18T00:10:11.292Z,18.28
2018-06-18T00:11:19.835Z,18.31
2018-06-18T00:12:27.350Z,18.50
2018-06-18T00:13:34.585Z,18.60
2018-06-18T00:14:44.746Z,18.59
2018-06-18T00:15:52.929Z,18.65
2018-06-18T00:17:01.231Z,18.50
2018-06-18T00:18:11.095Z,18.45
2018-06-18T00:19:18.739Z,18.37
2018-06-18T00:20:26.239Z,18.44
2018-06-18T00:21:37.036Z,18.55
2018-06-18T00:22:45.395Z,18.68
2018-06-18T00:23:55.696Z,18.58
2018-06-18T00:25:04.114Z,18.47
2018-06-18T00:26:12.167Z,18.55
2018-06-18T00:27:19.675Z,18.52
2018-06-18T00:28:35.956Z,18.40
2018-06-18T00:29:44.935Z,18.45
2018-06-18T00:30:53.222Z,18.66
2018-06-18T00:32:00.756Z,18.71
2018-06-18T00:33:09.732Z,18.69
2018-06-18T00:34:17.616Z,18.47
2018-06-18T00:35:25.271Z,18.55
2018-06-18T00:36:33.654Z,18.52
2018-06-18T00:37:40.814Z,18.53
2018-06-18T00:38:48.120Z,18.53
2018-06-18T00:39:55.456Z,18.53
2018-06-18T00:41:02.874Z,18.51
2018-06-18T00:42:11.876Z,18.54
2018-06-18T00:43:19.708Z,18.60
2018-06-18T00:44:27.712Z,18.69
2018-06-18T00:45:35.170Z,18.36
2018-06-18T00:46:42.363Z,18.39
2018-06-18T00:47:49.729Z,18.50
2018-06-18T00:48:57.052Z,18.50
2018-06-18T00:50:04.185Z,18.53
2018-06-18T00:51:11.652Z,18.53
2018-06-18T00:52:19.678Z,18.37
2018-06-18T00:53:26.927Z,18.26
2018-06-18T00:54:35.694Z,18.34
2018-06-18T00:55:55.226Z,18.28
2018-06-18T00:57:02.443Z,18.48
2018-06-18T00:58:09.803Z,18.24
2018-06-18T00:59:17.001Z,18.02
2018-06-18T01:00:24.228Z,18.11
2018-06-18T01:01:31.046Z,18.24
2018-06-18T01:02:38.602Z,18.15
2018-06-18T01:03:45.758Z,18.17
2018-06-18T01:04:59.375Z,18.27
2018-06-18T01:06:07.739Z,18.24
2018-06-18T01:07:15.160Z,18.19
2018-06-18T01:08:22.970Z,18.20
2018-06-18T01:09:30.048Z,18.13
2018-06-18T01:10:37.688Z,18.04
2018-06-18T01:11:44.500Z,18.13
2018-06-18T01:12:51.656Z,18.16
2018-06-18T01:13:58.655Z,18.14
2018-06-18T01:15:05.847Z,18.00
2018-06-18T01:16:13.495Z,17.89
2018-06-18T01:17:20.820Z,17.94
2018-06-18T01:18:28.323Z,17.79
2018-06-18T01:19:35.534Z,17.87
2018-06-18T01:20:43.117Z,18.07
2018-06-18T01:21:51.430Z,18.19
2018-06-18T01:22:58.793Z,17.98
2018-06-18T01:24:06.047Z,17.86
2018-06-18T01:25:13.409Z,17.95
2018-06-18T01:26:21.644Z,18.14
2018-06-18T01:27:29.089Z,18.01
2018-06-18T01:28:37.326Z,17.84
2018-06-18T01:29:44.389Z,17.89
2018-06-18T01:30:53.001Z,17.87
2018-06-18T01:32:01.335Z,17.75
2018-06-18T01:33:08.962Z,17.87
2018-06-18T01:34:16.336Z,17.99
2018-06-18T01:35:23.575Z,17.93
2018-06-18T01:36:30.700Z,17.96
2018-06-18T01:37:38.873Z,18.03
2018-06-18T01:38:47.121Z,18.01
2018-06-18T01:39:54.775Z,18.16
2018-06-18T01:41:01.933Z,18.07
2018-06-18T01:42:09.258Z,18.17
2018-06-18T01:43:17.478Z,18.06
2018-06-18T01:44:24.893Z,17.95
2018-06-18T01:45:32.899Z,17.86
2018-06-18T01:46:40.951Z,17.94
2018-06-18T01:47:48.025Z,18.11
2018-06-18T01:48:55.434Z,17.95
2018-06-18T01:50:03.881Z,17.81
2018-06-18T01:51:11.038Z,17.92
2018-06-18T01:52:18.199Z,18.00
2018-06-18T01:53:26.372Z,18.01
2018-06-18T01:54:35.241Z,18.10
2018-06-18T01:55:42.665Z,18.26
2018-06-18T01:56:50.925Z,18.12
2018-06-18T01:57:59.446Z,18.04
2018-06-18T01:59:08.034Z,17.93
2018-06-18T02:00:15.591Z,18.05
2018-06-18T02:01:22.862Z,18.11
2018-06-18T02:02:31.493Z,18.10
2018-06-18T02:03:39.731Z,18.15
2018-06-18T02:04:47.698Z,18.13
2018-06-18T02:05:55.130Z,17.97
2018-06-18T02:07:03.355Z,18.01
2018-06-18T02:08:10.981Z,17.92
2018-06-18T02:09:18.362Z,18.12
2018-06-18T02:10:25.979Z,18.04
2018-06-18T02:11:33.306Z,18.09
2018-06-18T02:12:41.338Z,17.92
2018-06-18T02:13:48.992Z,18.00
2018-06-18T02:14:56.903Z,17.92
2018-06-18T02:16:04.733Z,17.84
2018-06-18T02:17:12.465Z,17.90
2018-06-18T02:18:19.666Z,18.01
2018-06-18T02:19:29.667Z,18.10
2018-06-18T02:20:36.804Z,18.14
2018-06-18T02:21:43.880Z,18.04
2018-06-18T02:22:52.756Z,17.91
2018-06-18T02:24:00.455Z,17.63
2018-06-18T02:25:07.597Z,17.76
2018-06-18T02:26:14.438Z,17.45
2018-06-18T02:27:22.181Z,17.42
2018-06-18T02:30:07.656Z,17.35
2018-06-18T02:33:02.322Z,17.46
2018-06-18T02:34:39.409Z,17.50
2018-06-18T02:36:14.888Z,17.35
2018-06-18T02:37:52.862Z,17.67
2018-06-18T02:39:11.913Z,17.92
2018-06-18T02:40:23.910Z,17.98
2018-06-18T02:41:30.119Z,17.84
2018-06-18T02:42:36.320Z,17.69
2018-06-18T02:43:43.432Z,17.77
2018-06-18T02:44:50.780Z,17.66
2018-06-18T02:45:56.994Z,17.78
2018-06-18T02:47:03.219Z,17.88
2018-06-18T02:48:09.215Z,17.78
2018-06-18T02:49:15.269Z,17.67
2018-06-18T02:50:21.485Z,17.65
2018-06-18T02:51:27.717Z,17.79
2018-06-18T02:52:33.925Z,17.69
2018-06-18T02:53:40.166Z,17.74
2018-06-18T02:54:46.385Z,17.70
2018-06-18T02:55:52.607Z,17.78
2018-06-18T02:56:58.856Z,17.81
2018-06-18T02:58:04.744Z,17.80
2018-06-18T02:59:11.572Z,17.82
2018-06-18T03:00:18.557Z,17.80
2018-06-18T03:01:24.813Z,17.72
2018-06-18T03:02:30.764Z,17.47
2018-06-18T03:03:36.984Z,17.33
2018-06-18T03:04:43.187Z,17.26
2018-06-18T03:05:49.409Z,17.08
2018-06-18T03:06:55.637Z,17.11
2018-06-18T03:08:01.599Z,17.13
2018-06-18T03:09:07.829Z,17.16
2018-06-18T03:10:14.928Z,17.21
2018-06-18T03:11:21.161Z,17.28
2018-06-18T03:12:27.345Z,17.30
2018-06-18T03:13:33.572Z,17.53
2018-06-18T03:14:39.840Z,17.53
2018-06-18T03:15:46.033Z,17.50
2018-06-18T03:16:52.291Z,17.54
2018-06-18T03:17:58.488Z,17.57
2018-06-18T03:19:04.523Z,17.48
2018-06-18T03:20:15.959Z,17.42
2018-06-18T03:23:12.757Z,17.37
2018-06-18T03:24:32.193Z,17.25
2018-06-18T03:27:33.203Z,17.37
2018-06-18T03:29:09.052Z,17.34
2018-06-18T03:30:31.549Z,17.26
2018-06-18T03:31:39.014Z,17.49
2018-06-18T03:32:46.978Z,17.43
2018-06-18T03:33:54.122Z,17.31
2018-06-18T03:35:01.958Z,17.31
2018-06-18T03:36:09.221Z,17.24
2018-06-18T03:37:16.649Z,17.46
2018-06-18T03:38:23.805Z,17.59
2018-06-18T03:39:31.511Z,17.57
2018-06-18T03:40:39.071Z,17.70
2018-06-18T03:41:46.295Z,17.83
2018-06-18T03:42:54.513Z,17.89
2018-06-18T03:44:01.945Z,17.87
2018-06-18T03:45:09.842Z,17.72
2018-06-18T03:46:17.225Z,17.72
2018-06-18T03:47:24.253Z,17.54
2018-06-18T03:48:32.435Z,17.46
2018-06-18T03:49:39.977Z,17.60
2018-06-18T03:50:47.218Z,17.70
2018-06-18T03:51:54.503Z,17.74
2018-06-18T03:53:01.323Z,17.71
2018-06-18T03:54:08.268Z,17.65
2018-06-18T03:55:15.106Z,17.70
2018-06-18T03:56:23.370Z,17.64
2018-06-18T03:57:30.894Z,17.67
2018-06-18T03:58:39.279Z,17.78
2018-06-18T03:59:47.207Z,17.74
2018-06-18T04:00:54.232Z,17.73
2018-06-18T04:03:51.629Z,17.54
2018-06-18T04:05:17.432Z,17.49
2018-06-18T04:07:58.851Z,17.78
2018-06-18T04:09:06.232Z,17.88
2018-06-18T04:11:52.405Z,17.61
2018-06-18T04:12:59.995Z,17.55
2018-06-18T04:14:06.950Z,17.79
2018-06-18T04:15:13.835Z,17.88
2018-06-18T04:16:20.770Z,17.92
2018-06-18T04:17:27.325Z,17.74
2018-06-18T04:18:34.253Z,17.83
2018-06-18T04:19:41.687Z,17.60
2018-06-18T04:20:49.459Z,17.50
2018-06-18T04:21:56.669Z,17.45
2018-06-18T04:23:03.881Z,17.48
2018-06-18T04:24:10.075Z,17.50
2018-06-18T04:25:16.321Z,17.72
2018-06-18T04:26:22.544Z,17.64
2018-06-18T04:27:28.744Z,17.71
2018-06-18T04:28:35.912Z,17.58
2018-06-18T04:29:42.124Z,17.64
2018-06-18T04:30:48.311Z,17.54
2018-06-18T04:31:54.549Z,17.46
2018-06-18T04:33:00.777Z,17.45
2018-06-18T04:34:06.339Z,17.58
2018-06-18T04:35:12.595Z,17.77
2018-06-18T04:36:18.815Z,17.89
2018-06-18T04:37:24.884Z,17.75
2018-06-18T04:38:31.479Z,17.73
2018-06-18T04:39:37.935Z,17.53
2018-06-18T04:40:44.192Z,17.62
2018-06-18T04:41:53.958Z,17.77
2018-06-18T04:44:50.659Z,17.91
2018-06-18T04:46:10.685Z,18.00
2018-06-18T04:49:14.835Z,17.84
2018-06-18T04:50:52.005Z,17.93
2018-06-18T04:52:13.451Z,17.68
2018-06-18T04:53:20.962Z,17.59
2018-06-18T04:54:28.761Z,17.79
2018-06-18T04:55:36.315Z,17.82
2018-06-18T04:56:45.638Z,17.95
2018-06-18T04:57:54.331Z,17.79
2018-06-18T04:59:02.572Z,17.80
2018-06-18T05:00:08.907Z,17.86
2018-06-18T05:01:16.828Z,17.84
2018-06-18T05:02:25.324Z,17.76
2018-06-18T05:03:33.361Z,17.80
2018-06-18T05:04:42.383Z,17.83
2018-06-18T05:05:50.857Z,17.82
2018-06-18T05:06:58.054Z,17.71
2018-06-18T05:08:08.826Z,17.64
2018-06-18T05:09:16.437Z,17.54
2018-06-18T05:10:25.305Z,17.34
2018-06-18T05:11:34.899Z,17.29
2018-06-18T05:12:43.070Z,17.34
2018-06-18T05:13:51.510Z,17.46
2018-06-18T05:14:58.530Z,17.64
2018-06-18T05:16:05.883Z,17.52
2018-06-18T05:17:13.823Z,17.41
2018-06-18T05:18:21.458Z,17.47
2018-06-18T05:19:30.288Z,17.54
2018-06-18T05:20:40.009Z,17.54
2018-06-18T05:21:47.242Z,17.55
2018-06-18T05:22:54.658Z,17.39
2018-06-18T05:24:01.931Z,17.47
2018-06-18T05:25:10.103Z,17.61
2018-06-18T05:26:17.339Z,17.79
2018-06-18T05:27:25.852Z,17.90
2018-06-18T05:28:34.043Z,17.95
2018-06-18T05:29:41.183Z,17.68
2018-06-18T05:30:49.249Z,17.60
2018-06-18T05:31:57.739Z,17.69
2018-06-18T05:33:05.317Z,17.61
2018-06-18T05:34:13.460Z,17.28
2018-06-18T05:35:22.832Z,17.14
2018-06-18T05:36:30.830Z,17.34
2018-06-18T05:37:38.062Z,17.34
2018-06-18T05:38:45.616Z,17.33
2018-06-18T05:39:54.086Z,17.20
2018-06-18T05:41:02.356Z,17.24
2018-06-18T05:42:09.740Z,17.20
2018-06-18T05:43:17.076Z,17.44
2018-06-18T05:44:24.506Z,17.46
2018-06-18T05:45:33.119Z,17.42
2018-06-18T05:46:40.893Z,17.17
2018-06-18T05:47:49.125Z,16.97
2018-06-18T05:48:56.965Z,16.86
2018-06-18T05:50:04.289Z,16.74
2018-06-18T05:51:12.231Z,16.75
2018-06-18T05:52:20.592Z,16.80
2018-06-18T05:53:28.967Z,16.75
2018-06-18T05:54:36.914Z,16.90
2018-06-18T05:55:45.265Z,16.91
2018-06-18T05:56:52.809Z,17.01
2018-06-18T05:58:00.414Z,16.87
2018-06-18T05:59:07.642Z,16.96
2018-06-18T06:00:14.355Z,16.95
2018-06-18T06:01:21.511Z,17.12
2018-06-18T06:02:28.008Z,17.18
2018-06-18T06:03:34.972Z,17.09
2018-06-18T06:04:41.590Z,16.85
2018-06-18T06:05:48.116Z,16.97
2018-06-18T06:06:54.638Z,17.02
2018-06-18T06:08:00.961Z,17.07
2018-06-18T06:09:07.117Z,17.04
2018-06-18T06:10:13.535Z,17.13
2018-06-18T06:11:20.915Z,17.21
2018-06-18T06:12:27.834Z,17.18
2018-06-18T06:13:34.390Z,17.01
2018-06-18T06:14:41.054Z,16.85
2018-06-18T06:15:48.651Z,16.72
2018-06-18T06:16:56.986Z,16.68
2018-06-18T06:18:04.093Z,16.72
2018-06-18T06:19:10.418Z,16.75
2018-06-18T06:20:17.112Z,16.92
2018-06-18T06:21:23.572Z,16.90
2018-06-18T06:22:30.285Z,17.04
2018-06-18T06:23:37.096Z,17.04
2018-06-18T06:24:44.194Z,16.71
2018-06-18T06:25:50.988Z,16.55
2018-06-18T06:26:57.355Z,16.66
2018-06-18T06:28:04.210Z,16.68
2018-06-18T06:29:11.931Z,16.74
2018-06-18T06:30:19.385Z,16.85
2018-06-18T06:31:27.971Z,16.96
2018-06-18T06:32:36.151Z,16.94
2018-06-18T06:33:43.519Z,16.97
2018-06-18T06:34:50.811Z,17.05
2018-06-18T06:35:58.488Z,16.79
2018-06-18T06:37:05.958Z,16.55
2018-06-18T06:38:13.671Z,16.43
2018-06-18T06:39:20.877Z,16.40
2018-06-18T06:40:28.222Z,16.52
2018-06-18T06:41:36.399Z,16.59
2018-06-18T06:42:44.842Z,16.80
2018-06-18T06:43:52.880Z,17.02
2018-06-18T06:45:00.209Z,17.22
2018-06-18T06:46:07.948Z,17.21
2018-06-18T06:47:15.152Z,17.08
2018-06-18T06:48:23.106Z,17.15
2018-06-18T06:49:30.079Z,17.06
2018-06-18T06:50:37.142Z,17.26
2018-06-18T06:51:44.380Z,17.20
2018-06-18T06:52:51.783Z,17.13
2018-06-18T06:53:58.630Z,17.00
2018-06-18T06:55:05.236Z,17.03
2018-06-18T06:56:12.969Z,17.08
2018-06-18T06:57:20.701Z,17.04
2018-06-18T06:58:27.893Z,17.11
2018-06-18T06:59:37.345Z,17.28
2018-06-18T07:00:45.809Z,17.27
2018-06-18T07:01:54.788Z,17.52
2018-06-18T07:03:03.385Z,17.36
2018-06-18T07:04:10.659Z,17.57
2018-06-18T07:05:18.864Z,17.74
2018-06-18T07:06:26.102Z,17.60
2018-06-18T07:07:33.306Z,17.69
2018-06-18T07:08:42.658Z,17.70
2018-06-18T07:09:51.340Z,17.53
2018-06-18T07:10:58.391Z,17.40
2018-06-18T07:12:05.815Z,17.30
2018-06-18T07:13:13.131Z,17.33
2018-06-18T07:14:20.658Z,17.54
2018-06-18T07:15:27.774Z,17.54
2018-06-18T07:16:35.981Z,17.57
2018-06-18T07:17:43.187Z,17.75
2018-06-18T07:18:50.779Z,17.88
2018-06-18T07:19:59.048Z,17.89
2018-06-18T07:21:07.209Z,17.66
2018-06-18T07:22:14.026Z,17.52
2018-06-18T07:23:20.656Z,17.57
2018-06-18T07:24:27.265Z,17.56
2018-06-18T07:25:33.792Z,17.73
2018-06-18T07:26:40.700Z,17.88
2018-06-18T07:27:47.972Z,17.74
2018-06-18T07:28:55.280Z,17.73
2018-06-18T07:30:01.840Z,17.69
2018-06-18T07:31:08.498Z,17.71
2018-06-18T07:32:15.168Z,17.87
2018-06-18T07:33:21.458Z,17.97
2018-06-18T07:34:28.267Z,17.98
2018-06-18T07:35:36.935Z,18.02
2018-06-18T07:36:44.992Z,17.71
2018-06-18T07:37:52.486Z,17.74
2018-06-18T07:39:01.107Z,17.98
2018-06-18T07:40:08.483Z,18.21
2018-06-18T07:41:16.034Z,18.31
2018-06-18T07:42:24.699Z,18.30
2018-06-18T07:43:32.097Z,18.24
2018-06-18T07:44:39.392Z,18.30
2018-06-18T07:45:46.731Z,18.55
2018-06-18T07:46:53.998Z,18.58
2018-06-18T07:48:03.156Z,18.28
2018-06-18T07:49:11.992Z,18.38
2018-06-18T07:50:19.605Z,18.32
2018-06-18T07:51:27.907Z,18.13
2018-06-18T07:52:34.779Z,18.17
2018-06-18T07:53:40.948Z,18.31
2018-06-18T07:54:47.124Z,18.29
2018-06-18T07:55:53.340Z,18.38
2018-06-18T07:56:59.576Z,18.42
2018-06-18T07:58:05.752Z,18.55
2018-06-18T07:59:11.961Z,18.61
2018-06-18T08:00:18.188Z,18.54
2018-06-18T08:01:24.413Z,18.37
2018-06-18T08:02:30.624Z,18.54
2018-06-18T08:03:36.949Z,18.60
2018-06-18T08:04:43.048Z,18.64
2018-06-18T08:05:50.003Z,18.85
2018-06-18T08:06:56.422Z,19.00
2018-06-18T08:08:02.641Z,19.15
2018-06-18T08:09:08.864Z,19.25
2018-06-18T08:10:15.138Z,19.27
2018-06-18T08:11:20.677Z,19.43
2018-06-18T08:12:26.923Z,19.58
2018-06-18T08:13:33.553Z,19.53
2018-06-18T08:14:39.826Z,19.33
2018-06-18T08:15:46.055Z,19.27
2018-06-18T08:16:52.259Z,19.42
2018-06-18T08:17:58.532Z,19.38
2018-06-18T08:19:04.428Z,19.38
2018-06-18T08:20:10.397Z,19.53
2018-06-18T08:21:16.775Z,19.63
2018-06-18T08:22:23.876Z,19.90
2018-06-18T08:23:30.084Z,19.94
2018-06-18T08:24:36.335Z,19.82
2018-06-18T08:25:42.532Z,20.02
2018-06-18T08:26:48.776Z,20.14
2018-06-18T08:27:55.046Z,20.17
2018-06-18T08:29:01.229Z,19.98
2018-06-18T08:30:07.437Z,19.76
2018-06-18T08:31:13.672Z,19.99
2018-06-18T08:32:19.935Z,20.10
2018-06-18T08:33:26.393Z,20.06
2018-06-18T08:34:32.600Z,20.03
2018-06-18T08:35:38.775Z,20.17
2018-06-18T08:36:45.038Z,20.25
2018-06-18T08:37:51.281Z,20.11
2018-06-18T08:38:57.192Z,20.17
2018-06-18T08:40:03.119Z,20.13
2018-06-18T08:41:09.097Z,19.99
2018-06-18T08:42:15.556Z,20.14
2018-06-18T08:43:21.800Z,20.20
2018-06-18T08:44:28.013Z,20.17
2018-06-18T08:45:34.234Z,19.93
2018-06-18T08:46:40.180Z,20.05
2018-06-18T08:47:46.954Z,20.31
2018-06-18T08:48:54.398Z,20.39
2018-06-18T08:50:02.399Z,20.43
2018-06-18T08:53:01.282Z,20.52
2018-06-18T08:54:38.651Z,20.51
2018-06-18T08:56:17.347Z,20.64
2018-06-18T08:57:53.188Z,20.79
2018-06-18T08:59:28.491Z,20.83
2018-06-18T09:00:55.854Z,20.72
2018-06-18T09:02:03.065Z,20.86
2018-06-18T09:03:11.399Z,20.98
2018-06-18T09:04:18.592Z,20.90
2018-06-18T09:05:25.954Z,20.75
2018-06-18T09:06:34.155Z,20.68
2018-06-18T09:07:42.146Z,20.76
2018-06-18T09:08:52.027Z,20.96
2018-06-18T09:10:01.154Z,21.12
2018-06-18T09:11:09.588Z,21.13
2018-06-18T09:12:17.129Z,21.10
2018-06-18T09:13:24.449Z,21.17
2018-06-18T09:14:31.773Z,21.15
2018-06-18T09:15:39.370Z,21.20
2018-06-18T09:16:46.845Z,21.12
2018-06-18T09:17:54.453Z,21.14
2018-06-18T09:19:01.143Z,21.23
2018-06-18T09:20:07.165Z,21.12
2018-06-18T09:21:13.387Z,21.10
2018-06-18T09:22:19.645Z,21.03
2018-06-18T09:23:26.368Z,20.97
2018-06-18T09:24:33.647Z,20.67
2018-06-18T09:25:39.915Z,20.93
2018-06-18T09:26:45.912Z,20.91
2018-06-18T09:27:52.400Z,20.92
2018-06-18T09:28:59.280Z,21.11
2018-06-18T09:30:04.665Z,21.29
2018-06-18T09:31:11.566Z,21.37
2018-06-18T09:32:17.912Z,21.43
2018-06-18T09:33:24.424Z,21.68
2018-06-18T09:34:31.020Z,21.83
2018-06-18T09:35:37.563Z,21.92
2018-06-18T09:36:43.831Z,21.92
2018-06-18T09:37:50.206Z,21.79
2018-06-18T09:38:56.492Z,21.78
2018-06-18T09:40:02.441Z,21.78
2018-06-18T09:41:08.743Z,21.61
2018-06-18T09:42:14.928Z,21.56
2018-06-18T09:43:21.164Z,21.70
2018-06-18T09:44:27.957Z,21.84
2018-06-18T09:45:34.577Z,21.79
2018-06-18T09:46:40.839Z,21.93
2018-06-18T09:47:47.038Z,21.77
2018-06-18T09:48:53.026Z,21.90
2018-06-18T09:51:47.144Z,22.06
2018-06-18T09:53:21.228Z,21.70
2018-06-18T09:54:56.718Z,21.73
2018-06-18T09:56:21.764Z,21.93
2018-06-18T09:59:14.980Z,21.91
2018-06-18T10:00:45.272Z,22.22
2018-06-18T10:01:51.221Z,22.33
2018-06-18T10:02:57.422Z,22.10
2018-06-18T10:04:03.689Z,22.04
2018-06-18T10:05:10.513Z,21.98
2018-06-18T10:06:16.751Z,22.15
2018-06-18T10:07:22.973Z,22.13
2018-06-18T10:08:28.999Z,22.02
2018-06-18T10:09:35.441Z,22.03
2018-06-18T10:10:41.684Z,21.94
2018-06-18T10:11:47.900Z,22.22
2018-06-18T10:12:54.133Z,22.48
2018-06-18T10:14:00.396Z,22.62
2018-06-18T10:15:06.344Z,22.69
2018-06-18T10:16:12.240Z,22.68
2018-06-18T10:17:18.435Z,22.69
2018-06-18T10:18:24.638Z,22.47
2018-06-18T10:19:30.865Z,22.54
2018-06-18T10:20:37.105Z,22.79
2018-06-18T10:21:43.352Z,22.60
2018-06-18T10:22:49.581Z,22.27
2018-06-18T10:23:55.856Z,22.57
2018-06-18T10:25:02.067Z,22.76
2018-06-18T10:26:08.639Z,23.01
2018-06-18T10:27:14.845Z,23.17
2018-06-18T10:28:21.029Z,23.28
2018-06-18T10:29:27.261Z,23.25
2018-06-18T10:30:33.482Z,23.25
2018-06-18T10:31:39.336Z,23.34
2018-06-18T10:32:45.328Z,23.38
2018-06-18T10:35:30.097Z,22.93
2018-06-18T10:38:25.652Z,23.33
2018-06-18T10:40:03.142Z,23.66
2018-06-18T10:41:38.160Z,23.81
2018-06-18T10:43:15.345Z,23.84
2018-06-18T10:44:21.580Z,23.75
2018-06-18T10:45:27.786Z,23.29
2018-06-18T10:46:34.047Z,23.34
2018-06-18T10:47:40.257Z,23.41
2018-06-18T10:48:46.463Z,23.26
2018-06-18T10:49:52.695Z,23.04
2018-06-18T10:50:58.985Z,22.83
2018-06-18T10:52:05.461Z,22.81
2018-06-18T10:53:12.421Z,23.02
2018-06-18T10:54:18.712Z,22.88
2018-06-18T10:55:24.981Z,22.82
2018-06-18T10:56:31.230Z,22.87
2018-06-18T10:57:37.144Z,22.97
2018-06-18T10:58:43.382Z,23.28
2018-06-18T10:59:49.639Z,23.43
2018-06-18T11:00:55.900Z,23.74
2018-06-18T11:02:02.109Z,23.76
2018-06-18T11:03:08.338Z,23.73
2018-06-18T11:04:14.324Z,23.89
2018-06-18T11:05:20.317Z,23.88
2018-06-18T11:06:25.965Z,23.66
2018-06-18T11:07:32.709Z,23.35
2018-06-18T11:08:39.639Z,23.07
2018-06-18T11:09:45.876Z,23.13
2018-06-18T11:10:52.157Z,23.23
2018-06-18T11:11:58.382Z,23.35
2018-06-18T11:13:04.688Z,23.44
2018-06-18T11:14:10.946Z,23.48
2018-06-18T11:15:17.200Z,23.33
2018-06-18T11:16:23.497Z,23.40
2018-06-18T11:17:29.463Z,23.46
2018-06-18T11:20:13.136Z,23.67
2018-06-18T11:21:24.736Z,23.95
2018-06-18T11:22:30.773Z,23.81
2018-06-18T11:25:24.763Z,23.93
2018-06-18T11:26:49.428Z,23.91
2018-06-18T11:27:55.229Z,23.72
2018-06-18T11:29:01.458Z,23.62
2018-06-18T11:30:07.387Z,23.71
2018-06-18T11:31:13.795Z,23.84
2018-06-18T11:32:20.319Z,23.81
2018-06-18T11:33:26.670Z,23.89
2018-06-18T11:34:33.220Z,24.08
2018-06-18T11:35:39.477Z,24.03
2018-06-18T11:36:45.973Z,24.29
2018-06-18T11:37:52.233Z,24.52
2018-06-18T11:38:58.463Z,24.54
2018-06-18T11:40:04.873Z,24.12
2018-06-18T11:41:11.322Z,23.96
2018-06-18T11:42:18.169Z,24.35
2018-06-18T11:43:24.705Z,24.59
2018-06-18T11:44:31.117Z,24.69
2018-06-18T11:45:37.418Z,24.22
2018-06-18T11:46:43.713Z,24.51
2018-06-18T11:47:49.269Z,24.67
2018-06-18T11:48:55.246Z,24.76
2018-06-18T11:50:01.538Z,24.43
2018-06-18T11:51:07.775Z,24.61
2018-06-18T11:52:14.015Z,24.83
2018-06-18T11:53:20.262Z,25.13
2018-06-18T11:54:26.986Z,25.14
2018-06-18T11:55:34.384Z,24.78
2018-06-18T11:56:40.634Z,24.58
2018-06-18T11:57:46.905Z,24.32
2018-06-18T11:58:52.931Z,24.20
2018-06-18T12:01:48.970Z,24.25
2018-06-18T12:03:23.053Z,24.49
2018-06-18T12:04:59.585Z,24.79
2018-06-18T12:06:24.891Z,24.55
2018-06-18T12:09:24.603Z,25.05
2018-06-18T12:10:44.352Z,24.82
2018-06-18T12:11:49.889Z,24.85
2018-06-18T12:12:56.198Z,25.25
2018-06-18T12:14:02.240Z,25.51
2018-06-18T12:15:08.761Z,25.46
2018-06-18T12:16:15.638Z,25.53
2018-06-18T12:17:21.872Z,25.64
2018-06-18T12:18:28.084Z,25.69
2018-06-18T12:19:34.090Z,25.70
2018-06-18T12:20:40.420Z,25.60
2018-06-18T12:21:46.705Z,25.36
2018-06-18T12:22:53.765Z,25.16
2018-06-18T12:23:59.709Z,24.93
2018-06-18T12:25:06.003Z,24.93
2018-06-18T12:26:13.209Z,25.05
2018-06-18T12:27:19.968Z,25.00
2018-06-18T12:28:26.576Z,25.05
2018-06-18T12:29:32.915Z,25.03
2018-06-18T12:30:40.585Z,25.16
2018-06-18T12:31:47.738Z,25.35
2018-06-18T12:32:54.741Z,25.54
2018-06-18T12:34:00.999Z,25.55
2018-06-18T12:35:07.424Z,25.60
2018-06-18T12:36:13.812Z,25.35
2018-06-18T12:37:19.912Z,25.35
2018-06-18T12:38:25.933Z,25.44
2018-06-18T12:39:32.907Z,25.25
2018-06-18T12:40:39.708Z,25.31
2018-06-18T12:41:45.504Z,25.43
2018-06-18T12:42:51.968Z,25.23
2018-06-18T12:43:58.375Z,25.10
2018-06-18T12:45:03.817Z,25.15
2018-06-18T12:46:15.579Z,25.34
2018-06-18T12:49:11.860Z,25.63
2018-06-18T12:50:49.784Z,26.00
2018-06-18T12:52:28.573Z,25.60
2018-06-18T12:54:04.188Z,25.69
2018-06-18T12:55:41.087Z,25.61
2018-06-18T12:57:00.450Z,25.38
2018-06-18T12:58:07.279Z,25.70
2018-06-18T12:59:13.515Z,25.61
2018-06-18T13:00:19.659Z,25.22
2018-06-18T13:01:26.320Z,25.51
2018-06-18T13:02:32.746Z,25.76
2018-06-18T13:03:38.867Z,25.64
2018-06-18T13:04:45.768Z,25.66
2018-06-18T13:05:51.988Z,25.72
2018-06-18T13:06:57.895Z,25.59
2018-06-18T13:08:05.572Z,25.66
2018-06-18T13:09:11.580Z,25.13
2018-06-18T13:10:18.161Z,24.86
2018-06-18T13:11:24.360Z,24.68
2018-06-18T13:12:30.582Z,24.89
2018-06-18T13:13:36.835Z,25.10
2018-06-18T13:14:42.816Z,24.98
2018-06-18T13:15:51.063Z,24.79
2018-06-18T13:16:57.422Z,24.64
2018-06-18T13:18:03.608Z,24.44
2018-06-18T13:19:10.139Z,24.75
2018-06-18T13:20:16.963Z,25.22
2018-06-18T13:21:23.361Z,25.10
2018-06-18T13:22:30.476Z,25.15
2018-06-18T13:23:37.365Z,25.34
2018-06-18T13:24:45.280Z,25.47
2018-06-18T13:25:52.655Z,25.54
2018-06-18T13:26:59.561Z,25.56
2018-06-18T13:28:06.042Z,25.57
2018-06-18T13:29:13.130Z,25.70
2018-06-18T13:30:19.438Z,25.46
2018-06-18T13:31:27.938Z,25.54
2018-06-18T13:32:33.868Z,25.39
2018-06-18T13:33:40.074Z,25.48
2018-06-18T13:34:46.263Z,25.56
2018-06-18T13:35:53.199Z,25.54
2018-06-18T13:36:59.514Z,25.54
2018-06-18T13:39:56.350Z,25.34
2018-06-18T13:41:21.892Z,24.93
2018-06-18T13:44:16.556Z,24.80
2018-06-18T13:45:36.272Z,24.80
2018-06-18T13:46:42.370Z,24.91
2018-06-18T13:49:23.379Z,24.57
2018-06-18T13:50:29.868Z,24.86
2018-06-18T13:51:36.158Z,25.08
2018-06-18T13:52:42.346Z,25.23
2018-06-18T13:53:49.389Z,25.50
2018-06-18T13:54:56.110Z,25.73
2018-06-18T13:56:03.195Z,25.76
2018-06-18T13:57:10.277Z,25.88
2018-06-18T13:58:15.971Z,25.91
2018-06-18T13:59:22.316Z,25.92
2018-06-18T14:00:28.597Z,25.52
2018-06-18T14:01:37.510Z,25.73
2018-06-18T14:02:50.265Z,25.91
2018-06-18T14:03:57.975Z,25.67
2018-06-18T14:05:05.257Z,25.52
2018-06-18T14:06:12.290Z,25.44
2018-06-18T14:07:18.448Z,25.64
2018-06-18T14:08:24.852Z,25.54
2018-06-18T14:09:31.684Z,25.35
2018-06-18T14:10:40.061Z,25.41
2018-06-18T14:11:46.743Z,25.32
2018-06-18T14:12:53.281Z,25.35
2018-06-18T14:13:59.537Z,25.18
2018-06-18T14:15:05.978Z,25.21
2018-06-18T14:16:11.975Z,24.94
2018-06-18T14:17:17.987Z,25.06
2018-06-18T14:18:24.013Z,25.07
2018-06-18T14:19:29.776Z,25.07
2018-06-18T14:20:35.794Z,24.93
2018-06-18T14:21:41.755Z,24.62
2018-06-18T14:22:47.806Z,24.30
2018-06-18T14:23:54.090Z,24.43
2018-06-18T14:25:01.084Z,24.57
2018-06-18T14:26:09.796Z,24.12
2018-06-18T14:27:15.781Z,23.93
2018-06-18T14:28:21.763Z,23.98
2018-06-18T14:29:27.504Z,24.07
2018-06-18T14:32:06.681Z,24.03
2018-06-18T14:34:59.426Z,24.31
2018-06-18T14:36:33.339Z,24.37
2018-06-18T14:38:09.721Z,24.52
2018-06-18T14:39:44.896Z,24.58
2018-06-18T14:40:50.870Z,24.56
2018-06-18T14:41:56.828Z,24.54
2018-06-18T14:43:02.999Z,24.40
2018-06-18T14:44:08.998Z,24.49
2018-06-18T14:45:14.996Z,24.53
2018-06-18T14:46:21.212Z,24.54
2018-06-18T14:47:27.641Z,24.64
2018-06-18T14:48:33.742Z,24.59
2018-06-18T14:49:39.888Z,24.65
2018-06-18T14:50:46.138Z,24.80
2018-06-18T14:51:52.091Z,24.96
2018-06-18T14:52:58.103Z,24.95
2018-06-18T14:54:04.124Z,24.82
2018-06-18T14:55:10.298Z,24.61
2018-06-18T14:56:16.289Z,24.45
2018-06-18T14:57:23.209Z,24.56
2018-06-18T14:58:29.218Z,24.75
2018-06-18T14:59:35.815Z,25.00
2018-06-18T15:00:41.815Z,25.20
2018-06-18T15:01:48.109Z,25.26
2018-06-18T15:02:54.112Z,25.34
2018-06-18T15:04:00.152Z,25.27
2018-06-18T15:05:06.340Z,25.25
2018-06-18T15:06:12.348Z,25.25
2018-06-18T15:07:18.358Z,24.96
2018-06-18T15:08:24.651Z,24.74
2018-06-18T15:09:30.947Z,24.82
2018-06-18T15:10:37.092Z,25.07
2018-06-18T15:11:44.034Z,24.96
2018-06-18T15:12:50.266Z,25.10
2018-06-18T15:13:56.655Z,25.11
2018-06-18T15:15:02.483Z,24.99
2018-06-18T15:17:39.979Z,25.04
2018-06-18T15:18:45.960Z,24.79
2018-06-18T15:19:51.933Z,24.75
2018-06-18T15:20:57.953Z,24.85
2018-06-18T15:22:04.971Z,24.95